sensor_id;sensor_type;location;lat;lon;timestamp;temperature;humidity
33741;DHT22;20065;48.380;10.892;2023-09-19T00:02:18;17.20;99.90
33741;DHT22;20065;48.380;10.892;2023-09-19T00:05:04;17.30;99.90
33741;DHT22;20065;48.380;10.892;2023-09-19T00:07:51;17.30;99.90
33741;DHT22;20065;48.380;10.892;2023-09-19T00:10:40;17.20;99.90
33741;DHT22;20065;48.380;10.892;2023-09-19T00:13:27;17.10;99.90
33741;DHT22;20065;48.380;10.892;2023-09-19T00:16:14;17.10;99.90
33741;DHT22;20065;48.380;10.892;2023-09-19T00:19:01;17.20;99.90
33741;DHT22;20065;48.380;10.892;2023-09-19T00:21:47;17.20;99.90
33741;DHT22;20065;48.380;10.892;2023-09-19T00:24:37;17.10;99.90
33741;DHT22;20065;48.380;10.892;2023-09-19T00:27:23;17.10;99.90
33741;DHT22;20065;48.380;10.892;2023-09-19T00:30:09;17.10;99.90
33741;DHT22;20065;48.380;10.892;2023-09-19T00:33:05;17.00;99.90
33741;DHT22;20065;48.380;10.892;2023-09-19T00:35:55;17.00;99.90
33741;DHT22;20065;48.380;10.892;2023-09-19T00:38:43;17.00;99.90
33741;DHT22;20065;48.380;10.892;2023-09-19T00:41:34;17.00;99.90
33741;DHT22;20065;48.380;10.892;2023-09-19T00:44:24;17.00;99.90
33741;DHT22;20065;48.380;10.892;2023-09-19T00:47:10;17.00;99.90
33741;DHT22;20065;48.380;10.892;2023-09-19T00:50:03;17.00;99.90
33741;DHT22;20065;48.380;10.892;2023-09-19T00:52:53;17.00;99.90
33741;DHT22;20065;48.380;10.892;2023-09-19T00:55:41;16.90;99.90
33741;DHT22;20065;48.380;10.892;2023-09-19T00:58:28;16.90;99.90
33741;DHT22;20065;48.380;10.892;2023-09-19T01:01:20;16.90;99.90
33741;DHT22;20065;48.380;10.892;2023-09-19T01:04:06;16.80;99.90
33741;DHT22;20065;48.380;10.892;2023-09-19T01:06:53;16.80;99.90
33741;DHT22;20065;48.380;10.892;2023-09-19T01:09:39;16.90;99.90
33741;DHT22;20065;48.380;10.892;2023-09-19T01:12:45;16.90;99.90
33741;DHT22;20065;48.380;10.892;2023-09-19T01:18:52;16.90;99.90
33741;DHT22;20065;48.380;10.892;2023-09-19T01:22:16;16.90;99.90
33741;DHT22;20065;48.380;10.892;2023-09-19T01:26:29;16.90;99.90
33741;DHT22;20065;48.380;10.892;2023-09-19T01:31:45;16.90;99.90
33741;DHT22;20065;48.380;10.892;2023-09-19T01:37:34;16.90;99.90
33741;DHT22;20065;48.380;10.892;2023-09-19T01:40:21;16.90;99.90
33741;DHT22;20065;48.380;10.892;2023-09-19T01:43:27;16.90;99.90
33741;DHT22;20065;48.380;10.892;2023-09-19T01:46:25;16.90;99.90
33741;DHT22;20065;48.380;10.892;2023-09-19T01:49:55;16.90;99.90
33741;DHT22;20065;48.380;10.892;2023-09-19T01:52:22;16.90;99.90
33741;DHT22;20065;48.380;10.892;2023-09-19T01:55:12;16.90;99.90
33741;DHT22;20065;48.380;10.892;2023-09-19T01:58:14;16.90;99.90
33741;DHT22;20065;48.380;10.892;2023-09-19T02:01:03;16.90;99.90
33741;DHT22;20065;48.380;10.892;2023-09-19T02:03:52;17.00;99.90
33741;DHT22;20065;48.380;10.892;2023-09-19T02:06:40;17.00;99.90
33741;DHT22;20065;48.380;10.892;2023-09-19T02:09:27;17.00;99.90
33741;DHT22;20065;48.380;10.892;2023-09-19T02:12:13;17.00;99.90
33741;DHT22;20065;48.380;10.892;2023-09-19T02:15:01;17.10;99.90
33741;DHT22;20065;48.380;10.892;2023-09-19T02:17:49;17.10;99.90
33741;DHT22;20065;48.380;10.892;2023-09-19T02:20:35;17.00;99.90
33741;DHT22;20065;48.380;10.892;2023-09-19T02:23:21;17.10;99.90
33741;DHT22;20065;48.380;10.892;2023-09-19T02:26:08;17.10;99.90
33741;DHT22;20065;48.380;10.892;2023-09-19T02:28:54;17.10;99.90
33741;DHT22;20065;48.380;10.892;2023-09-19T02:31:40;17.10;99.90
33741;DHT22;20065;48.380;10.892;2023-09-19T02:34:26;17.10;99.90
33741;DHT22;20065;48.380;10.892;2023-09-19T02:37:13;17.10;99.90
33741;DHT22;20065;48.380;10.892;2023-09-19T02:40:03;17.10;99.90
33741;DHT22;20065;48.380;10.892;2023-09-19T02:42:55;17.10;99.90
33741;DHT22;20065;48.380;10.892;2023-09-19T02:45:43;17.00;99.90
33741;DHT22;20065;48.380;10.892;2023-09-19T02:48:29;17.10;99.90
33741;DHT22;20065;48.380;10.892;2023-09-19T02:51:15;17.10;99.90
33741;DHT22;20065;48.380;10.892;2023-09-19T02:54:01;17.10;99.90
33741;DHT22;20065;48.380;10.892;2023-09-19T02:56:49;17.00;99.90
33741;DHT22;20065;48.380;10.892;2023-09-19T02:59:35;16.90;99.90
33741;DHT22;20065;48.380;10.892;2023-09-19T03:02:23;16.90;99.90
33741;DHT22;20065;48.380;10.892;2023-09-19T03:05:10;17.00;99.90
33741;DHT22;20065;48.380;10.892;2023-09-19T03:07:58;17.00;99.90
33741;DHT22;20065;48.380;10.892;2023-09-19T03:10:47;16.90;99.90
33741;DHT22;20065;48.380;10.892;2023-09-19T03:13:46;16.90;99.90
33741;DHT22;20065;48.380;10.892;2023-09-19T03:16:38;16.90;99.90
33741;DHT22;20065;48.380;10.892;2023-09-19T03:19:24;17.00;99.90
33741;DHT22;20065;48.380;10.892;2023-09-19T03:22:13;17.00;99.90
33741;DHT22;20065;48.380;10.892;2023-09-19T03:25:00;16.90;99.90
33741;DHT22;20065;48.380;10.892;2023-09-19T03:27:47;16.80;99.90
33741;DHT22;20065;48.380;10.892;2023-09-19T03:30:34;16.80;99.90
33741;DHT22;20065;48.380;10.892;2023-09-19T03:33:22;16.70;99.90
33741;DHT22;20065;48.380;10.892;2023-09-19T03:36:08;16.70;99.90
33741;DHT22;20065;48.380;10.892;2023-09-19T03:38:55;16.70;99.90
33741;DHT22;20065;48.380;10.892;2023-09-19T03:41:41;16.70;99.90
33741;DHT22;20065;48.380;10.892;2023-09-19T03:44:28;16.70;99.90
33741;DHT22;20065;48.380;10.892;2023-09-19T03:47:14;16.70;99.90
33741;DHT22;20065;48.380;10.892;2023-09-19T03:50:00;16.70;99.90
33741;DHT22;20065;48.380;10.892;2023-09-19T03:52:46;16.80;99.90
33741;DHT22;20065;48.380;10.892;2023-09-19T03:55:33;16.80;99.90
33741;DHT22;20065;48.380;10.892;2023-09-19T03:58:21;16.80;99.90
33741;DHT22;20065;48.380;10.892;2023-09-19T04:01:07;16.80;99.90
33741;DHT22;20065;48.380;10.892;2023-09-19T04:03:53;16.80;99.90
33741;DHT22;20065;48.380;10.892;2023-09-19T04:06:40;16.80;99.90
33741;DHT22;20065;48.380;10.892;2023-09-19T04:09:26;16.80;99.90
33741;DHT22;20065;48.380;10.892;2023-09-19T04:12:12;16.80;99.90
33741;DHT22;20065;48.380;10.892;2023-09-19T04:15:08;16.80;99.90
33741;DHT22;20065;48.380;10.892;2023-09-19T04:17:54;16.80;99.90
33741;DHT22;20065;48.380;10.892;2023-09-19T04:20:40;16.80;99.90
33741;DHT22;20065;48.380;10.892;2023-09-19T04:23:28;16.70;99.90
33741;DHT22;20065;48.380;10.892;2023-09-19T04:26:14;16.70;99.90
33741;DHT22;20065;48.380;10.892;2023-09-19T04:29:02;16.70;99.90
33741;DHT22;20065;48.380;10.892;2023-09-19T04:31:50;16.70;99.90
33741;DHT22;20065;48.380;10.892;2023-09-19T04:34:36;16.70;99.90
33741;DHT22;20065;48.380;10.892;2023-09-19T04:37:24;16.70;99.90
33741;DHT22;20065;48.380;10.892;2023-09-19T04:40:10;16.80;99.90
33741;DHT22;20065;48.380;10.892;2023-09-19T04:43:00;16.80;99.90
33741;DHT22;20065;48.380;10.892;2023-09-19T04:45:49;16.80;99.90
33741;DHT22;20065;48.380;10.892;2023-09-19T04:48:41;16.40;99.90
33741;DHT22;20065;48.380;10.892;2023-09-19T04:51:28;16.80;99.90
33741;DHT22;20065;48.380;10.892;2023-09-19T04:54:21;16.80;99.90
33741;DHT22;20065;48.380;10.892;2023-09-19T04:57:08;16.80;99.90
33741;DHT22;20065;48.380;10.892;2023-09-19T04:59:54;16.80;99.90
33741;DHT22;20065;48.380;10.892;2023-09-19T05:02:41;16.80;99.90
33741;DHT22;20065;48.380;10.892;2023-09-19T05:05:28;16.80;99.90
33741;DHT22;20065;48.380;10.892;2023-09-19T05:08:14;16.70;99.90
33741;DHT22;20065;48.380;10.892;2023-09-19T05:11:04;16.70;99.90
33741;DHT22;20065;48.380;10.892;2023-09-19T05:13:50;16.70;99.90
33741;DHT22;20065;48.380;10.892;2023-09-19T05:16:36;16.60;99.90
33741;DHT22;20065;48.380;10.892;2023-09-19T05:19:22;16.70;99.90
33741;DHT22;20065;48.380;10.892;2023-09-19T05:22:08;16.60;99.90
33741;DHT22;20065;48.380;10.892;2023-09-19T05:24:54;16.60;99.90
33741;DHT22;20065;48.380;10.892;2023-09-19T05:27:40;16.60;99.90
33741;DHT22;20065;48.380;10.892;2023-09-19T05:30:28;16.70;99.90
33741;DHT22;20065;48.380;10.892;2023-09-19T05:33:15;16.70;99.90
33741;DHT22;20065;48.380;10.892;2023-09-19T05:36:01;16.70;99.90
33741;DHT22;20065;48.380;10.892;2023-09-19T05:38:48;16.70;99.90
33741;DHT22;20065;48.380;10.892;2023-09-19T05:41:36;16.70;99.90
33741;DHT22;20065;48.380;10.892;2023-09-19T05:44:22;16.70;99.90
33741;DHT22;20065;48.380;10.892;2023-09-19T05:47:08;16.80;99.90
33741;DHT22;20065;48.380;10.892;2023-09-19T05:49:54;16.70;99.90
33741;DHT22;20065;48.380;10.892;2023-09-19T05:52:41;16.80;99.90
33741;DHT22;20065;48.380;10.892;2023-09-19T05:55:28;16.70;99.90
33741;DHT22;20065;48.380;10.892;2023-09-19T05:58:15;16.80;99.90
33741;DHT22;20065;48.380;10.892;2023-09-19T06:01:03;16.80;99.90
33741;DHT22;20065;48.380;10.892;2023-09-19T06:03:49;16.90;99.90
33741;DHT22;20065;48.380;10.892;2023-09-19T06:06:36;17.00;99.90
33741;DHT22;20065;48.380;10.892;2023-09-19T06:09:25;17.00;99.90
33741;DHT22;20065;48.380;10.892;2023-09-19T06:12:13;17.00;99.90
33741;DHT22;20065;48.380;10.892;2023-09-19T06:15:04;17.10;99.90
33741;DHT22;20065;48.380;10.892;2023-09-19T06:17:55;17.10;99.90
33741;DHT22;20065;48.380;10.892;2023-09-19T06:20:42;17.10;99.90
33741;DHT22;20065;48.380;10.892;2023-09-19T06:23:30;17.00;99.90
33741;DHT22;20065;48.380;10.892;2023-09-19T06:26:16;17.00;99.90
33741;DHT22;20065;48.380;10.892;2023-09-19T06:29:03;16.90;99.90
33741;DHT22;20065;48.380;10.892;2023-09-19T06:31:50;16.90;99.90
33741;DHT22;20065;48.380;10.892;2023-09-19T06:34:37;16.90;99.90
33741;DHT22;20065;48.380;10.892;2023-09-19T06:37:27;16.90;99.90
33741;DHT22;20065;48.380;10.892;2023-09-19T06:40:14;17.00;99.90
33741;DHT22;20065;48.380;10.892;2023-09-19T06:43:01;16.90;99.90
33741;DHT22;20065;48.380;10.892;2023-09-19T06:45:50;17.00;99.90
33741;DHT22;20065;48.380;10.892;2023-09-19T06:48:40;16.90;99.90
33741;DHT22;20065;48.380;10.892;2023-09-19T06:51:26;16.90;99.90
33741;DHT22;20065;48.380;10.892;2023-09-19T06:54:12;16.90;99.90
33741;DHT22;20065;48.380;10.892;2023-09-19T06:56:58;17.00;99.90
33741;DHT22;20065;48.380;10.892;2023-09-19T06:59:45;17.00;99.90
33741;DHT22;20065;48.380;10.892;2023-09-19T07:02:31;17.00;99.90
33741;DHT22;20065;48.380;10.892;2023-09-19T07:05:17;17.10;99.90
33741;DHT22;20065;48.380;10.892;2023-09-19T07:08:09;17.10;99.90
33741;DHT22;20065;48.380;10.892;2023-09-19T07:10:58;17.20;99.90
33741;DHT22;20065;48.380;10.892;2023-09-19T07:13:44;17.10;99.90
33741;DHT22;20065;48.380;10.892;2023-09-19T07:16:30;17.10;99.90
33741;DHT22;20065;48.380;10.892;2023-09-19T07:19:16;17.10;99.90
33741;DHT22;20065;48.380;10.892;2023-09-19T07:22:06;17.10;99.90
33741;DHT22;20065;48.380;10.892;2023-09-19T07:24:53;17.10;99.90
33741;DHT22;20065;48.380;10.892;2023-09-19T07:27:41;17.10;99.90
33741;DHT22;20065;48.380;10.892;2023-09-19T07:30:28;17.10;99.90
33741;DHT22;20065;48.380;10.892;2023-09-19T07:33:14;17.10;99.90
33741;DHT22;20065;48.380;10.892;2023-09-19T07:36:00;17.20;99.90
33741;DHT22;20065;48.380;10.892;2023-09-19T07:38:47;17.30;99.90
33741;DHT22;20065;48.380;10.892;2023-09-19T07:41:33;17.50;99.90
33741;DHT22;20065;48.380;10.892;2023-09-19T07:44:20;17.60;99.90
33741;DHT22;20065;48.380;10.892;2023-09-19T07:47:06;17.60;99.90
33741;DHT22;20065;48.380;10.892;2023-09-19T07:49:52;17.70;99.90
33741;DHT22;20065;48.380;10.892;2023-09-19T07:52:38;17.70;99.90
33741;DHT22;20065;48.380;10.892;2023-09-19T07:55:25;17.80;99.90
33741;DHT22;20065;48.380;10.892;2023-09-19T07:58:11;17.90;99.90
33741;DHT22;20065;48.380;10.892;2023-09-19T08:01:06;17.80;99.90
33741;DHT22;20065;48.380;10.892;2023-09-19T08:03:52;17.80;99.90
33741;DHT22;20065;48.380;10.892;2023-09-19T08:06:38;17.90;99.90
33741;DHT22;20065;48.380;10.892;2023-09-19T08:09:25;17.90;99.90
33741;DHT22;20065;48.380;10.892;2023-09-19T08:12:11;18.00;99.90
33741;DHT22;20065;48.380;10.892;2023-09-19T08:14:58;18.00;99.90
33741;DHT22;20065;48.380;10.892;2023-09-19T08:17:44;18.00;99.90
33741;DHT22;20065;48.380;10.892;2023-09-19T08:20:30;18.00;99.90
33741;DHT22;20065;48.380;10.892;2023-09-19T08:23:17;18.00;99.90
33741;DHT22;20065;48.380;10.892;2023-09-19T08:26:07;18.10;99.90
33741;DHT22;20065;48.380;10.892;2023-09-19T08:28:53;18.30;99.90
33741;DHT22;20065;48.380;10.892;2023-09-19T08:31:41;18.40;99.90
33741;DHT22;20065;48.380;10.892;2023-09-19T08:34:27;18.30;99.90
33741;DHT22;20065;48.380;10.892;2023-09-19T08:37:14;18.40;99.90
33741;DHT22;20065;48.380;10.892;2023-09-19T08:40:00;18.40;99.90
33741;DHT22;20065;48.380;10.892;2023-09-19T08:42:54;18.50;99.90
33741;DHT22;20065;48.380;10.892;2023-09-19T08:45:40;18.50;99.90
33741;DHT22;20065;48.380;10.892;2023-09-19T08:48:27;18.70;99.90
33741;DHT22;20065;48.380;10.892;2023-09-19T08:51:27;18.70;99.90
33741;DHT22;20065;48.380;10.892;2023-09-19T08:54:25;18.80;99.90
33741;DHT22;20065;48.380;10.892;2023-09-19T08:57:17;18.80;99.90
33741;DHT22;20065;48.380;10.892;2023-09-19T09:00:08;18.90;99.90
33741;DHT22;20065;48.380;10.892;2023-09-19T09:02:58;19.00;99.90
33741;DHT22;20065;48.380;10.892;2023-09-19T09:05:46;19.10;99.90
33741;DHT22;20065;48.380;10.892;2023-09-19T09:08:33;19.00;99.90
33741;DHT22;20065;48.380;10.892;2023-09-19T09:11:20;19.00;99.90
33741;DHT22;20065;48.380;10.892;2023-09-19T09:14:07;19.00;99.90
33741;DHT22;20065;48.380;10.892;2023-09-19T09:16:53;18.90;99.90
33741;DHT22;20065;48.380;10.892;2023-09-19T09:19:44;18.90;99.90
33741;DHT22;20065;48.380;10.892;2023-09-19T09:22:30;18.90;99.90
33741;DHT22;20065;48.380;10.892;2023-09-19T09:25:17;19.00;99.90
33741;DHT22;20065;48.380;10.892;2023-09-19T09:28:04;19.10;99.90
33741;DHT22;20065;48.380;10.892;2023-09-19T09:30:50;19.20;99.90
33741;DHT22;20065;48.380;10.892;2023-09-19T09:33:37;19.20;99.90
33741;DHT22;20065;48.380;10.892;2023-09-19T09:36:40;19.40;99.90
33741;DHT22;20065;48.380;10.892;2023-09-19T09:39:32;19.50;99.90
33741;DHT22;20065;48.380;10.892;2023-09-19T09:42:36;19.40;99.90
33741;DHT22;20065;48.380;10.892;2023-09-19T09:45:28;19.30;99.90
33741;DHT22;20065;48.380;10.892;2023-09-19T09:48:25;19.30;99.90
33741;DHT22;20065;48.380;10.892;2023-09-19T09:51:30;19.20;99.90
33741;DHT22;20065;48.380;10.892;2023-09-19T09:54:30;19.40;99.90
33741;DHT22;20065;48.380;10.892;2023-09-19T09:57:27;19.60;99.90
33741;DHT22;20065;48.380;10.892;2023-09-19T10:00:13;19.70;99.90
33741;DHT22;20065;48.380;10.892;2023-09-19T10:03:02;19.90;99.90
33741;DHT22;20065;48.380;10.892;2023-09-19T10:05:55;20.00;99.90
33741;DHT22;20065;48.380;10.892;2023-09-19T10:09:00;20.10;99.90
33741;DHT22;20065;48.380;10.892;2023-09-19T10:12:06;19.90;99.90
33741;DHT22;20065;48.380;10.892;2023-09-19T10:14:56;20.30;99.90
33741;DHT22;20065;48.380;10.892;2023-09-19T10:17:47;20.20;99.90
33741;DHT22;20065;48.380;10.892;2023-09-19T10:20:33;20.10;99.90
33741;DHT22;20065;48.380;10.892;2023-09-19T10:23:30;20.20;99.90
33741;DHT22;20065;48.380;10.892;2023-09-19T10:26:20;20.20;99.90
33741;DHT22;20065;48.380;10.892;2023-09-19T10:29:06;20.20;99.90
33741;DHT22;20065;48.380;10.892;2023-09-19T10:31:58;20.20;99.90
33741;DHT22;20065;48.380;10.892;2023-09-19T10:34:49;20.10;99.90
33741;DHT22;20065;48.380;10.892;2023-09-19T10:37:37;20.20;99.90
33741;DHT22;20065;48.380;10.892;2023-09-19T10:40:24;20.10;99.90
33741;DHT22;20065;48.380;10.892;2023-09-19T10:43:20;20.10;99.90
33741;DHT22;20065;48.380;10.892;2023-09-19T10:46:09;20.00;99.90
33741;DHT22;20065;48.380;10.892;2023-09-19T10:49:01;20.10;99.90
33741;DHT22;20065;48.380;10.892;2023-09-19T10:51:52;20.20;99.90
33741;DHT22;20065;48.380;10.892;2023-09-19T10:54:46;20.30;99.90
33741;DHT22;20065;48.380;10.892;2023-09-19T10:57:37;20.40;99.90
33741;DHT22;20065;48.380;10.892;2023-09-19T11:00:24;20.40;99.90
33741;DHT22;20065;48.380;10.892;2023-09-19T11:06:16;20.20;99.90
33741;DHT22;20065;48.380;10.892;2023-09-19T11:09:05;20.10;99.90
33741;DHT22;20065;48.380;10.892;2023-09-19T11:11:56;20.00;99.90
33741;DHT22;20065;48.380;10.892;2023-09-19T11:14:43;20.10;99.90
33741;DHT22;20065;48.380;10.892;2023-09-19T11:17:51;20.50;99.90
33741;DHT22;20065;48.380;10.892;2023-09-19T11:20:38;20.90;99.90
33741;DHT22;20065;48.380;10.892;2023-09-19T11:23:27;20.80;99.90
33741;DHT22;20065;48.380;10.892;2023-09-19T11:26:40;20.60;99.90
33741;DHT22;20065;48.380;10.892;2023-09-19T11:29:28;20.50;99.90
33741;DHT22;20065;48.380;10.892;2023-09-19T11:32:15;20.40;99.90
33741;DHT22;20065;48.380;10.892;2023-09-19T11:35:07;20.00;99.90
33741;DHT22;20065;48.380;10.892;2023-09-19T11:40:44;19.30;99.90
33741;DHT22;20065;48.380;10.892;2023-09-19T11:43:37;19.30;99.90
33741;DHT22;20065;48.380;10.892;2023-09-19T11:46:27;19.30;99.90
33741;DHT22;20065;48.380;10.892;2023-09-19T11:49:16;19.40;99.90
33741;DHT22;20065;48.380;10.892;2023-09-19T11:52:10;19.40;99.90
33741;DHT22;20065;48.380;10.892;2023-09-19T11:55:08;19.50;99.90
33741;DHT22;20065;48.380;10.892;2023-09-19T11:57:57;19.50;99.90
33741;DHT22;20065;48.380;10.892;2023-09-19T12:00:44;19.50;99.90
33741;DHT22;20065;48.380;10.892;2023-09-19T12:03:32;19.50;99.90
33741;DHT22;20065;48.380;10.892;2023-09-19T12:06:19;19.60;99.90
33741;DHT22;20065;48.380;10.892;2023-09-19T12:09:12;19.70;99.90
33741;DHT22;20065;48.380;10.892;2023-09-19T12:12:03;19.90;99.90
33741;DHT22;20065;48.380;10.892;2023-09-19T12:14:50;20.10;99.90
33741;DHT22;20065;48.380;10.892;2023-09-19T12:17:37;20.30;99.90
33741;DHT22;20065;48.380;10.892;2023-09-19T12:20:24;20.50;99.90
33741;DHT22;20065;48.380;10.892;2023-09-19T12:23:14;20.70;99.90
33741;DHT22;20065;48.380;10.892;2023-09-19T12:26:02;20.70;99.90
33741;DHT22;20065;48.380;10.892;2023-09-19T12:28:58;20.80;99.90
33741;DHT22;20065;48.380;10.892;2023-09-19T12:32:03;20.80;99.90
33741;DHT22;20065;48.380;10.892;2023-09-19T12:34:53;20.80;99.90
33741;DHT22;20065;48.380;10.892;2023-09-19T12:37:52;20.90;99.90
33741;DHT22;20065;48.380;10.892;2023-09-19T12:40:41;20.90;99.90
33741;DHT22;20065;48.380;10.892;2023-09-19T12:43:29;21.10;99.90
33741;DHT22;20065;48.380;10.892;2023-09-19T12:46:21;21.40;99.90
33741;DHT22;20065;48.380;10.892;2023-09-19T12:49:18;21.30;99.90
33741;DHT22;20065;48.380;10.892;2023-09-19T12:52:05;21.50;99.90
33741;DHT22;20065;48.380;10.892;2023-09-19T12:54:51;21.60;99.90
33741;DHT22;20065;48.380;10.892;2023-09-19T12:57:37;21.80;99.90
33741;DHT22;20065;48.380;10.892;2023-09-19T13:00:35;21.50;99.90
33741;DHT22;20065;48.380;10.892;2023-09-19T13:03:28;21.50;99.90
33741;DHT22;20065;48.380;10.892;2023-09-19T13:06:17;21.30;99.90
33741;DHT22;20065;48.380;10.892;2023-09-19T13:09:13;21.10;99.90
33741;DHT22;20065;48.380;10.892;2023-09-19T13:12:01;21.20;99.90
33741;DHT22;20065;48.380;10.892;2023-09-19T13:15:10;21.30;99.90
33741;DHT22;20065;48.380;10.892;2023-09-19T13:18:11;21.30;99.90
33741;DHT22;20065;48.380;10.892;2023-09-19T13:21:09;21.20;99.90
33741;DHT22;20065;48.380;10.892;2023-09-19T13:24:23;21.40;99.90
33741;DHT22;20065;48.380;10.892;2023-09-19T13:27:11;21.50;99.90
33741;DHT22;20065;48.380;10.892;2023-09-19T13:29:58;21.60;99.90
33741;DHT22;20065;48.380;10.892;2023-09-19T13:32:45;21.60;99.90
33741;DHT22;20065;48.380;10.892;2023-09-19T13:35:33;21.60;99.90
33741;DHT22;20065;48.380;10.892;2023-09-19T13:38:19;21.60;99.90
33741;DHT22;20065;48.380;10.892;2023-09-19T13:41:08;21.60;99.90
33741;DHT22;20065;48.380;10.892;2023-09-19T13:43:55;21.50;99.90
33741;DHT22;20065;48.380;10.892;2023-09-19T13:46:43;21.30;99.90
33741;DHT22;20065;48.380;10.892;2023-09-19T13:49:34;21.30;99.90
33741;DHT22;20065;48.380;10.892;2023-09-19T13:52:21;21.20;99.90
33741;DHT22;20065;48.380;10.892;2023-09-19T13:55:09;21.10;99.90
33741;DHT22;20065;48.380;10.892;2023-09-19T13:57:55;21.20;99.90
33741;DHT22;20065;48.380;10.892;2023-09-19T14:00:41;21.20;99.90
33741;DHT22;20065;48.380;10.892;2023-09-19T14:03:28;21.30;99.90
33741;DHT22;20065;48.380;10.892;2023-09-19T14:06:18;21.20;99.90
33741;DHT22;20065;48.380;10.892;2023-09-19T14:09:04;21.30;99.90
33741;DHT22;20065;48.380;10.892;2023-09-19T14:11:50;21.20;99.90
33741;DHT22;20065;48.380;10.892;2023-09-19T14:14:38;21.10;99.90
33741;DHT22;20065;48.380;10.892;2023-09-19T14:17:24;21.20;99.90
33741;DHT22;20065;48.380;10.892;2023-09-19T14:20:12;21.20;99.90
33741;DHT22;20065;48.380;10.892;2023-09-19T14:23:04;21.20;99.90
33741;DHT22;20065;48.380;10.892;2023-09-19T14:25:56;21.10;99.90
33741;DHT22;20065;48.380;10.892;2023-09-19T14:28:58;21.20;99.90
33741;DHT22;20065;48.380;10.892;2023-09-19T14:31:44;21.20;99.90
33741;DHT22;20065;48.380;10.892;2023-09-19T14:34:31;21.40;99.90
33741;DHT22;20065;48.380;10.892;2023-09-19T14:37:17;21.10;99.90
33741;DHT22;20065;48.380;10.892;2023-09-19T14:40:04;21.10;99.90
33741;DHT22;20065;48.380;10.892;2023-09-19T14:42:54;21.00;99.90
33741;DHT22;20065;48.380;10.892;2023-09-19T14:45:40;21.10;99.90
33741;DHT22;20065;48.380;10.892;2023-09-19T14:48:26;21.20;99.90
33741;DHT22;20065;48.380;10.892;2023-09-19T14:51:13;21.30;99.90
33741;DHT22;20065;48.380;10.892;2023-09-19T14:53:59;21.20;99.90
33741;DHT22;20065;48.380;10.892;2023-09-19T14:56:47;21.10;99.90
33741;DHT22;20065;48.380;10.892;2023-09-19T14:59:39;21.00;99.90
33741;DHT22;20065;48.380;10.892;2023-09-19T15:02:25;21.10;99.90
33741;DHT22;20065;48.380;10.892;2023-09-19T15:05:11;21.10;99.90
33741;DHT22;20065;48.380;10.892;2023-09-19T15:07:58;21.10;99.90
33741;DHT22;20065;48.380;10.892;2023-09-19T15:10:50;21.00;99.90
33741;DHT22;20065;48.380;10.892;2023-09-19T15:13:38;21.00;99.90
33741;DHT22;20065;48.380;10.892;2023-09-19T15:16:24;21.00;99.90
33741;DHT22;20065;48.380;10.892;2023-09-19T15:19:10;21.10;99.90
33741;DHT22;20065;48.380;10.892;2023-09-19T15:21:57;21.10;99.90
33741;DHT22;20065;48.380;10.892;2023-09-19T15:24:43;21.00;99.90
33741;DHT22;20065;48.380;10.892;2023-09-19T15:27:29;20.90;99.90
33741;DHT22;20065;48.380;10.892;2023-09-19T15:30:18;20.90;99.90
33741;DHT22;20065;48.380;10.892;2023-09-19T15:33:05;21.00;99.90
33741;DHT22;20065;48.380;10.892;2023-09-19T15:35:51;21.10;99.90
33741;DHT22;20065;48.380;10.892;2023-09-19T15:41:46;21.00;99.90
33741;DHT22;20065;48.380;10.892;2023-09-19T15:44:35;21.10;99.90
33741;DHT22;20065;48.380;10.892;2023-09-19T15:47:22;21.20;99.90
33741;DHT22;20065;48.380;10.892;2023-09-19T15:50:09;21.00;99.90
33741;DHT22;20065;48.380;10.892;2023-09-19T15:52:56;21.10;99.90
33741;DHT22;20065;48.380;10.892;2023-09-19T15:55:43;21.00;99.90
33741;DHT22;20065;48.380;10.892;2023-09-19T15:58:29;21.00;99.90
33741;DHT22;20065;48.380;10.892;2023-09-19T16:01:16;20.90;99.90
33741;DHT22;20065;48.380;10.892;2023-09-19T16:04:02;20.90;99.90
33741;DHT22;20065;48.380;10.892;2023-09-19T16:06:49;20.90;99.90
33741;DHT22;20065;48.380;10.892;2023-09-19T16:09:36;21.00;99.90
33741;DHT22;20065;48.380;10.892;2023-09-19T16:12:23;20.90;99.90
33741;DHT22;20065;48.380;10.892;2023-09-19T16:15:09;20.90;99.90
33741;DHT22;20065;48.380;10.892;2023-09-19T16:18:00;20.80;99.90
33741;DHT22;20065;48.380;10.892;2023-09-19T16:20:47;20.90;99.90
33741;DHT22;20065;48.380;10.892;2023-09-19T16:23:33;20.80;99.90
33741;DHT22;20065;48.380;10.892;2023-09-19T16:26:22;20.80;99.90
33741;DHT22;20065;48.380;10.892;2023-09-19T16:29:09;20.70;99.90
33741;DHT22;20065;48.380;10.892;2023-09-19T16:31:55;20.70;99.90
33741;DHT22;20065;48.380;10.892;2023-09-19T16:34:41;20.70;99.90
33741;DHT22;20065;48.380;10.892;2023-09-19T16:37:28;20.70;99.90
33741;DHT22;20065;48.380;10.892;2023-09-19T16:40:14;20.70;99.90
33741;DHT22;20065;48.380;10.892;2023-09-19T16:43:00;20.80;99.90
33741;DHT22;20065;48.380;10.892;2023-09-19T16:45:57;20.80;99.90
33741;DHT22;20065;48.380;10.892;2023-09-19T16:48:45;20.80;99.90
33741;DHT22;20065;48.380;10.892;2023-09-19T16:51:32;20.90;99.90
33741;DHT22;20065;48.380;10.892;2023-09-19T16:54:18;20.90;99.90
33741;DHT22;20065;48.380;10.892;2023-09-19T16:57:05;20.70;99.90
33741;DHT22;20065;48.380;10.892;2023-09-19T16:59:51;20.60;99.90
33741;DHT22;20065;48.380;10.892;2023-09-19T17:02:37;20.50;99.90
33741;DHT22;20065;48.380;10.892;2023-09-19T17:05:23;20.70;99.90
33741;DHT22;20065;48.380;10.892;2023-09-19T17:08:09;20.40;99.90
33741;DHT22;20065;48.380;10.892;2023-09-19T17:11:09;20.40;99.90
33741;DHT22;20065;48.380;10.892;2023-09-19T17:13:56;20.50;99.90
33741;DHT22;20065;48.380;10.892;2023-09-19T17:16:43;20.40;99.90
33741;DHT22;20065;48.380;10.892;2023-09-19T17:19:30;20.30;99.90
33741;DHT22;20065;48.380;10.892;2023-09-19T17:22:16;20.30;99.90
33741;DHT22;20065;48.380;10.892;2023-09-19T17:25:04;20.20;99.90
33741;DHT22;20065;48.380;10.892;2023-09-19T17:27:50;20.20;99.90
33741;DHT22;20065;48.380;10.892;2023-09-19T17:30:37;20.20;99.90
33741;DHT22;20065;48.380;10.892;2023-09-19T17:33:25;20.20;99.90
33741;DHT22;20065;48.380;10.892;2023-09-19T17:39:06;20.50;99.90
33741;DHT22;20065;48.380;10.892;2023-09-19T17:41:54;20.60;99.90
33741;DHT22;20065;48.380;10.892;2023-09-19T17:44:40;20.60;99.90
33741;DHT22;20065;48.380;10.892;2023-09-19T17:47:27;20.50;99.90
33741;DHT22;20065;48.380;10.892;2023-09-19T17:50:16;20.30;99.90
33741;DHT22;20065;48.380;10.892;2023-09-19T17:53:03;20.20;99.90